Overton RPC :: 100

liberation: 2022-05-14  07:00     latitude: 34.861244     longitude: -85.505535 45 birds
# LOFT PRING MILES ARRIVAL SPEED ToWin
1 BIG MOMMA'S LOFT IF21-ORP-1404 103.563 2022-05-14 08:58:19.863 1540.348 00:00:00
2 BIG MOMMA'S LOFT IF21-ORP-1433 103.563 2022-05-14 08:58:36.254 1536.800 00:00:16
3 HONEY FARM LOFT IF21-ORP-0529 106.823 2022-05-14 09:03:59.533 1516.299 00:01:56
4 HONEY FARM LOFT AU21-NASH-9592 106.823 2022-05-14 09:06:02.249 1491.693 00:03:59
5 VALHALLA LOFTS IF20-VALH-0023 107.559 2022-05-14 09:11:51.569 1435.653 00:08:58
6 VALHALLA LOFTS IF21-E-1600 107.559 2022-05-14 09:11:52.778 1435.434 00:08:59
7 VALHALLA LOFTS IF21-VALH-0123 107.559 2022-05-14 09:11:53.553 1435.293 00:09:00
8 VALHALLA LOFTS IF20-VALH-0048 107.559 2022-05-14 09:11:55.945 1434.859 00:09:02
9 VALHALLA LOFTS AU21-POP-0537 107.559 2022-05-14 09:12:12.012 1431.953 00:09:18
10 HONEY FARM LOFT IF21-MTN-1069 106.823 2022-05-14 09:15:01.930 1392.329 00:12:59
11 PHILBETTER LOFT IF21-E-1560 104.389 2022-05-14 09:16:06.910 1349.780 00:16:50
12 PHILBETTER LOFT IF21-E-1553 104.389 2022-05-14 09:16:11.638 1348.999 00:16:55
13 PHILBETTER LOFT IF21-E-1567 104.389 2022-05-14 09:16:15.724 1348.324 00:16:59
14 PHILBETTER LOFT IF21-E-1552 104.389 2022-05-14 09:16:15.832 1348.307 00:16:59
15 PHILBETTER LOFT IF21-E-1584 104.389 2022-05-14 09:16:24.112 1346.943 00:17:08
16 PHILBETTER LOFT IF21-E-1556 104.389 2022-05-14 09:16:31.397 1345.745 00:17:15
17 HONEY FARM LOFT IF21-ORP-0436 106.823 2022-05-14 09:20:19.673 1339.785 00:18:16
18 BIG MOMMA'S LOFT IF21-E-1354 103.563 2022-05-14 09:18:52.502 1312.482 00:20:33
19 VALHALLA LOFTS IF20-VALH-0042 107.559 2022-05-14 09:24:47.024 1307.498 00:21:53
20 VALHALLA LOFTS IF21-VALH-0151 107.559 2022-05-14 09:24:56.840 1306.022 00:22:03
21 VALHALLA LOFTS IF21-VALH-0184 107.559 2022-05-14 09:27:51.403 1280.324 00:24:58
22 VALHALLA LOFTS IF21-VALH-0192 107.559 2022-05-14 09:28:14.745 1276.964 00:25:21
23 VALHALLA LOFTS IF21-E-1580 107.559 2022-05-14 09:28:26.203 1275.321 00:25:32
24 VALHALLA LOFTS IF21-VALH-0135 107.559 2022-05-14 09:28:34.958 1274.069 00:25:41
25 VALHALLA LOFTS IF21-VALH-0195 107.559 2022-05-14 09:28:38.350 1273.584 00:25:45
26 VALHALLA LOFTS IF21-E-1446 107.559 2022-05-14 09:37:19.006 1203.333 00:34:25
27 VALHALLA LOFTS IF20-VALH-0020 107.559 2022-05-14 09:37:21.256 1203.046 00:34:27
28 PHILBETTER LOFT IF21-VALH-0191 104.389 2022-05-14 09:33:08.551 1199.703 00:33:52
29 PHILBETTER LOFT AU21-ARPU-8998 104.389 2022-05-14 09:33:18.286 1198.433 00:34:02
30 VALHALLA LOFTS AU21-ARPU-8999 107.559 2022-05-14 09:48:14.534 1125.190 00:45:21
31 BIG MOMMA'S LOFT MX18-FMC-100609 103.563 2022-05-14 10:08:01.994 969.355 01:09:42
32 PHILBETTER LOFT IF21-VALH-0119 104.389 2022-05-14 10:12:01.855 956.749 01:12:45
BIG MOMMA'S LOFT IF21-E-1344 0 0000-00-00 00:00:00.000 0.000 00:00:00
BIG MOMMA'S LOFT MX20-UCDJ-01422 0 0000-00-00 00:00:00.000 0.000 00:00:00
HONEY FARM LOFT AU21-NASH-9544 0 0000-00-00 00:00:00.000 0.000 00:00:00
HONEY FARM LOFT IF21-E-1540 0 0000-00-00 00:00:00.000 0.000 00:00:00
HONEY FARM LOFT IF21-FOYS-5494 0 0000-00-00 00:00:00.000 0.000 00:00:00
HONEY FARM LOFT IF21-SCHO-2305 0 0000-00-00 00:00:00.000 0.000 00:00:00
HONEY FARM LOFT IF21-SCHO-2307 0 0000-00-00 00:00:00.000 0.000 00:00:00
LET IT GO LOFT IF21-ORP-0113 0 0000-00-00 00:00:00.000 0.000 00:00:00
LET IT GO LOFT IF21-ORP-0129 0 0000-00-00 00:00:00.000 0.000 00:00:00
LET IT GO LOFT IF21-ORP-0403 0 0000-00-00 00:00:00.000 0.000 00:00:00
LET IT GO LOFT IF21-ORP-0467 0 0000-00-00 00:00:00.000 0.000 00:00:00
LET IT GO LOFT IF21-ORP-0479 0 0000-00-00 00:00:00.000 0.000 00:00:00
PHILBETTER LOFT IF21-VALH-0152 0 0000-00-00 00:00:00.000 0.000 00:00:00